If you wish to contribute or participate in the discussions about articles you are invited to join SKYbrary as a registered user

 Actions

McClellan-Palomar Airport

From SKYbrary Wiki

KCRQ
Airport
ICAO: KCRQ – IATA: CLD
Summary
Name McClellan-Palomar Airport
Region North America
Territory United States US.gif
Location Carlsbad, California
Serving San Diego County
Elevation 100.889 m
331 ft
331 ft100.889 m
Coordinates 33° 7' 35.70" N, 117° 16' 43.82" W
Runways
Designator Length Width Surface ROPS
6/24 1493 m4,898.294 ft
46 m150.919 ft
ASP yes/yes


METAR
Observation KCRQ 130053Z 24006KT 10SM CLR 26/16 A2983 RMK AO2 SLP097 T02560156
Station Carlsbad, McClellan-Palomar Airport
Date/Time 13 July 2020 00:53:00
Wind direction 240°
Wind speed 06 kts
Lowest cloud amount n/a
Temperature 25.6°C
Dew point 15.6°C
Humidity 54%
QNH hPa
Weather condition n/a

McClellan–Palomar Airport, known to locals as Palomar Airport, is a public airport located 5 km2.7 nm
5,000 m
16,404.199 ft
southeast of the central business district of Carlsbad, a city in San Diego County, California.

Climatology

Mediterranean (Köppen climate classification Csb)

Maps

Terrain

Loading map...

Airport Layout

Loading map...


Accidents & Serious Incidents at or in vicinity of KCRQ

None on SKYbrary